VG04 weather

Yorktown Power Station Heliport
Newport News, Virginia, United States

Public forecast

Using degrees Fahrenheit for public forecast. Weather courtesy of forecast.io.

Closest aviation weather report (METAR) to Yorktown Power Station Heliport

Closest report is Newport News Williamsburg International Airport, 5.3 nm (9.8 km) SSW. Retrieved 2019/12/13 15:54 UTC (7 minutes ago):

KPHF 131554Z 03004KT 8SM BKN008 BKN100 12/09 A3024 RMK AO2 RAB26E41 SLP241 P0000 T01220094

Closest aviation forecast (TAF) to Yorktown Power Station Heliport

Closest forecast is Newport News Williamsburg International Airport, 5.3 nm (9.8 km) SSW. Retrieved 2019/12/13 12:30 UTC (4 hours ago):

TAF KPHF 131128Z 1312/1412 05005KT P6SM OVC007 FM132100 05005KT 4SM -RA BR OVC007 FM140300 07005KT 4SM RA BR OVC005